Terminal Aerodrome Forecast
Issued by NWS

Home | Current Version | Previous Version | Text Only | Print | Product List | Glossary On
Versions: 1 2 3 4 5 6 7 8 9 10 11 12 13 14 15 16 17 18 19 20 21 22 23 24
418
FTUS41 KBGM 190902 AAA
TAFRME
TAF AMD
KRME 190902Z 1909/2006 VRB03KT P6SM OVC020
      TEMPO 1909/1911 -SN OVC012
     FM191200 VRB03KT P6SM OVC012
     FM191500 31007G14KT P6SM OVC020
     FM192300 29012G20KT 2SM -SHSN OVC015
     FM200200 29010KT 5SM -SHSN OVC020=

USA.gov is the U.S. government's official web portal to all federal, state and local government web resources and services.